sensor_id;sensor_type;location;lat;lon;timestamp;pressure;altitude;pressure_sealevel;temperature;humidity
47592;BME280;33317;33.356;-117.184;2024-01-16T00:01:41;99334.88;;;28.46;23.77
47592;BME280;33317;33.356;-117.184;2024-01-16T00:04:10;99332.82;;;28.47;23.75
47592;BME280;33317;33.356;-117.184;2024-01-16T00:06:42;99329.70;;;28.65;23.80
47592;BME280;33317;33.356;-117.184;2024-01-16T00:09:10;99331.83;;;28.35;23.82
47592;BME280;33317;33.356;-117.184;2024-01-16T00:11:41;99337.02;;;28.57;23.88
47592;BME280;33317;33.356;-117.184;2024-01-16T00:14:09;99342.36;;;28.41;23.85
47592;BME280;33317;33.356;-117.184;2024-01-16T00:16:42;99344.51;;;28.52;23.97
47592;BME280;33317;33.356;-117.184;2024-01-16T00:19:11;99343.33;;;28.08;23.97
47592;BME280;33317;33.356;-117.184;2024-01-16T00:21:39;99340.37;;;28.11;23.98
47592;BME280;33317;33.356;-117.184;2024-01-16T00:24:08;99340.66;;;28.29;24.01
47592;BME280;33317;33.356;-117.184;2024-01-16T00:26:37;99340.20;;;28.48;24.02
47592;BME280;33317;33.356;-117.184;2024-01-16T00:29:05;99343.20;;;28.22;24.08
47592;BME280;33317;33.356;-117.184;2024-01-16T00:31:34;99346.24;;;28.42;24.08
47592;BME280;33317;33.356;-117.184;2024-01-16T00:34:03;99348.96;;;28.39;24.17
47592;BME280;33317;33.356;-117.184;2024-01-16T00:36:30;99347.26;;;28.36;24.28
47592;BME280;33317;33.356;-117.184;2024-01-16T00:38:59;99345.41;;;28.33;24.28
47592;BME280;33317;33.356;-117.184;2024-01-16T00:41:27;99348.21;;;28.28;24.29
47592;BME280;33317;33.356;-117.184;2024-01-16T00:43:56;99348.00;;;28.24;24.34
47592;BME280;33317;33.356;-117.184;2024-01-16T00:46:24;99355.76;;;28.18;24.39
47592;BME280;33317;33.356;-117.184;2024-01-16T00:48:52;99356.32;;;28.13;24.44
47592;BME280;33317;33.356;-117.184;2024-01-16T00:51:21;99357.22;;;28.04;24.52
47592;BME280;33317;33.356;-117.184;2024-01-16T00:53:49;99354.15;;;28.23;24.63
47592;BME280;33317;33.356;-117.184;2024-01-16T00:56:17;99354.87;;;27.87;24.67
47592;BME280;33317;33.356;-117.184;2024-01-16T00:58:46;99362.13;;;27.79;24.76
47592;BME280;33317;33.356;-117.184;2024-01-16T01:01:14;99366.47;;;28.00;24.85
47592;BME280;33317;33.356;-117.184;2024-01-16T01:03:43;99366.06;;;27.66;24.92
47592;BME280;33317;33.356;-117.184;2024-01-16T01:06:11;99366.34;;;27.59;25.00
47592;BME280;33317;33.356;-117.184;2024-01-16T01:08:40;99362.86;;;28.02;25.07
47592;BME280;33317;33.356;-117.184;2024-01-16T01:11:08;99364.79;;;27.73;25.17
47592;BME280;33317;33.356;-117.184;2024-01-16T01:13:37;99366.16;;;27.91;25.20
47592;BME280;33317;33.356;-117.184;2024-01-16T01:16:05;99368.55;;;27.59;25.24
47592;BME280;33317;33.356;-117.184;2024-01-16T01:18:34;99375.43;;;27.53;25.30
47592;BME280;33317;33.356;-117.184;2024-01-16T01:21:02;99379.94;;;27.69;25.45
47592;BME280;33317;33.356;-117.184;2024-01-16T01:23:30;99387.55;;;27.41;25.59
47592;BME280;33317;33.356;-117.184;2024-01-16T01:25:59;99389.89;;;27.34;25.62
47592;BME280;33317;33.356;-117.184;2024-01-16T01:28:28;99391.67;;;27.30;25.65
47592;BME280;33317;33.356;-117.184;2024-01-16T01:30:56;99395.14;;;27.44;25.70
47592;BME280;33317;33.356;-117.184;2024-01-16T01:33:24;99395.90;;;27.16;25.70
47592;BME280;33317;33.356;-117.184;2024-01-16T01:35:53;99402.75;;;27.31;25.78
47592;BME280;33317;33.356;-117.184;2024-01-16T01:38:21;99407.58;;;27.21;25.86
47592;BME280;33317;33.356;-117.184;2024-01-16T01:40:50;99408.37;;;27.13;25.93
47592;BME280;33317;33.356;-117.184;2024-01-16T01:43:19;99409.70;;;27.04;26.08
47592;BME280;33317;33.356;-117.184;2024-01-16T01:45:57;99416.51;;;26.96;26.12
47592;BME280;33317;33.356;-117.184;2024-01-16T01:48:31;99424.74;;;26.93;26.11
47592;BME280;33317;33.356;-117.184;2024-01-16T01:51:01;99421.85;;;26.86;26.16
47592;BME280;33317;33.356;-117.184;2024-01-16T01:53:29;99427.96;;;26.76;26.23
47592;BME280;33317;33.356;-117.184;2024-01-16T01:56:00;99433.08;;;26.66;26.29
47592;BME280;33317;33.356;-117.184;2024-01-16T01:58:32;99436.11;;;26.63;26.27
47592;BME280;33317;33.356;-117.184;2024-01-16T02:01:02;99439.84;;;26.57;26.35
47592;BME280;33317;33.356;-117.184;2024-01-16T02:03:35;99440.09;;;26.50;26.39
47592;BME280;33317;33.356;-117.184;2024-01-16T02:06:04;99441.98;;;26.49;26.40
47592;BME280;33317;33.356;-117.184;2024-01-16T02:08:33;99446.27;;;26.69;26.39
47592;BME280;33317;33.356;-117.184;2024-01-16T02:11:02;99454.81;;;26.64;26.49
47592;BME280;33317;33.356;-117.184;2024-01-16T02:13:31;99454.58;;;26.58;26.52
47592;BME280;33317;33.356;-117.184;2024-01-16T02:15:59;99456.24;;;26.26;26.53
47592;BME280;33317;33.356;-117.184;2024-01-16T02:18:28;99466.40;;;26.19;26.62
47592;BME280;33317;33.356;-117.184;2024-01-16T02:20:59;99472.13;;;26.10;26.68
47592;BME280;33317;33.356;-117.184;2024-01-16T02:23:28;99476.04;;;26.25;26.86
47592;BME280;33317;33.356;-117.184;2024-01-16T02:25:57;99478.48;;;26.10;27.05
47592;BME280;33317;33.356;-117.184;2024-01-16T02:28:25;99477.90;;;26.09;26.97
47592;BME280;33317;33.356;-117.184;2024-01-16T02:30:53;99479.48;;;26.06;26.94
47592;BME280;33317;33.356;-117.184;2024-01-16T02:33:22;99481.66;;;25.81;26.97
47592;BME280;33317;33.356;-117.184;2024-01-16T02:35:50;99484.58;;;26.22;26.91
47592;BME280;33317;33.356;-117.184;2024-01-16T02:38:18;99485.79;;;25.91;27.12
47592;BME280;33317;33.356;-117.184;2024-01-16T02:40:47;99490.79;;;26.03;27.18
47592;BME280;33317;33.356;-117.184;2024-01-16T02:43:16;99492.19;;;25.78;27.17
47592;BME280;33317;33.356;-117.184;2024-01-16T02:45:45;99495.97;;;25.95;27.26
47592;BME280;33317;33.356;-117.184;2024-01-16T02:48:13;99495.12;;;25.81;27.32
47592;BME280;33317;33.356;-117.184;2024-01-16T02:50:42;99493.18;;;25.70;27.57
47592;BME280;33317;33.356;-117.184;2024-01-16T02:53:10;99494.65;;;25.71;27.33
47592;BME280;33317;33.356;-117.184;2024-01-16T02:55:38;99492.81;;;25.57;27.41
47592;BME280;33317;33.356;-117.184;2024-01-16T02:58:07;99494.41;;;25.52;27.52
47592;BME280;33317;33.356;-117.184;2024-01-16T03:00:35;99498.14;;;25.53;27.51
47592;BME280;33317;33.356;-117.184;2024-01-16T03:03:10;99504.17;;;25.50;27.57
47592;BME280;33317;33.356;-117.184;2024-01-16T03:05:39;99505.28;;;25.40;27.76
47592;BME280;33317;33.356;-117.184;2024-01-16T03:08:08;99506.98;;;25.35;27.69
47592;BME280;33317;33.356;-117.184;2024-01-16T03:10:37;99504.52;;;25.50;27.80
47592;BME280;33317;33.356;-117.184;2024-01-16T03:13:06;99504.56;;;25.38;27.95
47592;BME280;33317;33.356;-117.184;2024-01-16T03:15:37;99512.61;;;25.38;27.87
47592;BME280;33317;33.356;-117.184;2024-01-16T03:18:05;99514.28;;;25.16;27.82
47592;BME280;33317;33.356;-117.184;2024-01-16T03:20:35;99514.30;;;25.13;27.97
47592;BME280;33317;33.356;-117.184;2024-01-16T03:23:04;99515.58;;;25.02;28.09
47592;BME280;33317;33.356;-117.184;2024-01-16T03:25:34;99515.15;;;25.10;28.21
47592;BME280;33317;33.356;-117.184;2024-01-16T03:28:03;99516.43;;;25.04;28.22
47592;BME280;33317;33.356;-117.184;2024-01-16T03:30:34;99522.88;;;24.66;28.51
47592;BME280;33317;33.356;-117.184;2024-01-16T03:33:03;99520.04;;;24.93;28.43
47592;BME280;33317;33.356;-117.184;2024-01-16T03:35:35;99517.73;;;24.75;28.63
47592;BME280;33317;33.356;-117.184;2024-01-16T03:38:04;99522.38;;;25.03;28.67
47592;BME280;33317;33.356;-117.184;2024-01-16T03:40:32;99529.25;;;25.18;28.37
47592;BME280;33317;33.356;-117.184;2024-01-16T03:43:01;99536.25;;;25.00;28.37
47592;BME280;33317;33.356;-117.184;2024-01-16T03:45:30;99539.26;;;24.47;28.91
47592;BME280;33317;33.356;-117.184;2024-01-16T03:47:59;99540.50;;;24.72;28.83
47592;BME280;33317;33.356;-117.184;2024-01-16T03:50:31;99536.14;;;24.63;28.71
47592;BME280;33317;33.356;-117.184;2024-01-16T03:53:00;99532.38;;;24.53;29.06
47592;BME280;33317;33.356;-117.184;2024-01-16T03:55:29;99531.67;;;24.17;29.14
47592;BME280;33317;33.356;-117.184;2024-01-16T03:57:59;99533.54;;;24.47;29.15
47592;BME280;33317;33.356;-117.184;2024-01-16T04:00:29;99530.75;;;24.24;29.51
47592;BME280;33317;33.356;-117.184;2024-01-16T04:03:00;99530.04;;;24.00;29.40
47592;BME280;33317;33.356;-117.184;2024-01-16T04:05:28;99524.50;;;23.98;29.77
47592;BME280;33317;33.356;-117.184;2024-01-16T04:07:57;99521.86;;;24.29;29.42
47592;BME280;33317;33.356;-117.184;2024-01-16T04:10:28;99522.09;;;24.07;29.63
47592;BME280;33317;33.356;-117.184;2024-01-16T04:12:58;99525.64;;;23.94;29.85
47592;BME280;33317;33.356;-117.184;2024-01-16T04:15:28;99529.77;;;24.10;29.61
47592;BME280;33317;33.356;-117.184;2024-01-16T04:17:57;99533.24;;;24.25;29.33
47592;BME280;33317;33.356;-117.184;2024-01-16T04:20:25;99535.43;;;24.02;29.22
47592;BME280;33317;33.356;-117.184;2024-01-16T04:22:57;99540.20;;;24.30;29.20
47592;BME280;33317;33.356;-117.184;2024-01-16T04:25:28;99540.98;;;24.28;29.22
47592;BME280;33317;33.356;-117.184;2024-01-16T04:27:59;99544.28;;;24.42;29.00
47592;BME280;33317;33.356;-117.184;2024-01-16T04:30:28;99545.24;;;24.55;28.84
47592;BME280;33317;33.356;-117.184;2024-01-16T04:32:58;99544.31;;;24.53;28.80
47592;BME280;33317;33.356;-117.184;2024-01-16T04:35:27;99543.17;;;24.20;29.26
47592;BME280;33317;33.356;-117.184;2024-01-16T04:37:56;99540.55;;;24.52;29.11
47592;BME280;33317;33.356;-117.184;2024-01-16T04:40:28;99540.42;;;24.41;28.90
47592;BME280;33317;33.356;-117.184;2024-01-16T04:42:57;99538.09;;;24.26;29.13
47592;BME280;33317;33.356;-117.184;2024-01-16T04:45:27;99536.60;;;24.47;29.12
47592;BME280;33317;33.356;-117.184;2024-01-16T04:47:57;99532.88;;;24.02;29.48
47592;BME280;33317;33.356;-117.184;2024-01-16T04:50:26;99532.39;;;23.66;30.15
47592;BME280;33317;33.356;-117.184;2024-01-16T04:52:54;99531.83;;;24.04;29.47
47592;BME280;33317;33.356;-117.184;2024-01-16T04:55:25;99529.62;;;24.05;29.29
47592;BME280;33317;33.356;-117.184;2024-01-16T04:57:53;99527.09;;;23.91;29.58
47592;BME280;33317;33.356;-117.184;2024-01-16T05:00:22;99527.49;;;23.59;30.09
47592;BME280;33317;33.356;-117.184;2024-01-16T05:02:51;99521.31;;;23.24;30.46
47592;BME280;33317;33.356;-117.184;2024-01-16T05:05:23;99519.86;;;22.90;30.89
47592;BME280;33317;33.356;-117.184;2024-01-16T05:07:51;99522.14;;;23.77;29.74
47592;BME280;33317;33.356;-117.184;2024-01-16T05:10:22;99526.17;;;23.87;30.33
47592;BME280;33317;33.356;-117.184;2024-01-16T05:12:51;99524.47;;;24.05;29.76
47592;BME280;33317;33.356;-117.184;2024-01-16T05:15:20;99520.77;;;23.71;30.29
47592;BME280;33317;33.356;-117.184;2024-01-16T05:17:48;99521.14;;;23.26;30.34
47592;BME280;33317;33.356;-117.184;2024-01-16T05:20:17;99524.19;;;23.03;30.88
47592;BME280;33317;33.356;-117.184;2024-01-16T05:22:45;99532.91;;;22.69;31.26
47592;BME280;33317;33.356;-117.184;2024-01-16T05:25:14;99531.70;;;22.72;31.62
47592;BME280;33317;33.356;-117.184;2024-01-16T05:27:43;99532.48;;;22.01;32.65
47592;BME280;33317;33.356;-117.184;2024-01-16T05:30:12;99530.72;;;22.65;31.13
47592;BME280;33317;33.356;-117.184;2024-01-16T05:32:40;99526.08;;;22.85;31.29
47592;BME280;33317;33.356;-117.184;2024-01-16T05:35:09;99519.00;;;23.31;30.40
47592;BME280;33317;33.356;-117.184;2024-01-16T05:37:37;99522.39;;;22.47;31.33
47592;BME280;33317;33.356;-117.184;2024-01-16T05:40:10;99524.75;;;22.82;31.14
47592;BME280;33317;33.356;-117.184;2024-01-16T05:42:38;99524.17;;;22.75;31.19
47592;BME280;33317;33.356;-117.184;2024-01-16T05:45:08;99528.80;;;22.87;31.30
47592;BME280;33317;33.356;-117.184;2024-01-16T05:47:36;99529.91;;;23.05;30.73
47592;BME280;33317;33.356;-117.184;2024-01-16T05:50:05;99529.41;;;23.19;30.55
47592;BME280;33317;33.356;-117.184;2024-01-16T05:52:34;99527.95;;;23.27;30.15
47592;BME280;33317;33.356;-117.184;2024-01-16T05:55:03;99527.81;;;23.23;30.35
47592;BME280;33317;33.356;-117.184;2024-01-16T05:57:32;99526.90;;;23.18;30.52
47592;BME280;33317;33.356;-117.184;2024-01-16T06:00:03;99524.24;;;23.72;30.34
47592;BME280;33317;33.356;-117.184;2024-01-16T06:02:32;99523.56;;;23.07;30.41
47592;BME280;33317;33.356;-117.184;2024-01-16T06:05:00;99522.94;;;23.24;30.29
47592;BME280;33317;33.356;-117.184;2024-01-16T06:07:28;99520.97;;;22.51;31.05
47592;BME280;33317;33.356;-117.184;2024-01-16T06:09:57;99519.30;;;23.18;30.57
47592;BME280;33317;33.356;-117.184;2024-01-16T06:12:27;99520.59;;;23.25;30.14
47592;BME280;33317;33.356;-117.184;2024-01-16T06:14:55;99519.72;;;22.72;30.73
47592;BME280;33317;33.356;-117.184;2024-01-16T06:17:24;99515.82;;;22.76;30.80
47592;BME280;33317;33.356;-117.184;2024-01-16T06:19:52;99514.61;;;23.00;30.74
47592;BME280;33317;33.356;-117.184;2024-01-16T06:22:21;99514.07;;;22.97;30.69
47592;BME280;33317;33.356;-117.184;2024-01-16T06:24:49;99509.00;;;23.17;30.47
47592;BME280;33317;33.356;-117.184;2024-01-16T06:27:18;99508.30;;;22.69;31.08
47592;BME280;33317;33.356;-117.184;2024-01-16T06:29:47;99505.83;;;23.13;30.55
47592;BME280;33317;33.356;-117.184;2024-01-16T06:32:15;99502.32;;;22.38;31.51
47592;BME280;33317;33.356;-117.184;2024-01-16T06:34:44;99501.50;;;22.67;31.43
47592;BME280;33317;33.356;-117.184;2024-01-16T06:37:13;99495.40;;;21.72;32.26
47592;BME280;33317;33.356;-117.184;2024-01-16T06:39:41;99496.66;;;21.53;32.75
47592;BME280;33317;33.356;-117.184;2024-01-16T06:42:10;99497.42;;;21.60;32.92
47592;BME280;33317;33.356;-117.184;2024-01-16T06:44:38;99491.89;;;22.41;31.51
47592;BME280;33317;33.356;-117.184;2024-01-16T06:47:07;99494.85;;;22.01;32.18
47592;BME280;33317;33.356;-117.184;2024-01-16T06:49:35;99492.00;;;22.14;32.36
47592;BME280;33317;33.356;-117.184;2024-01-16T06:52:04;99491.76;;;22.48;31.88
47592;BME280;33317;33.356;-117.184;2024-01-16T06:54:32;99491.92;;;22.10;31.97
47592;BME280;33317;33.356;-117.184;2024-01-16T06:57:00;99493.27;;;22.39;31.61
47592;BME280;33317;33.356;-117.184;2024-01-16T06:59:29;99490.61;;;22.69;31.21
47592;BME280;33317;33.356;-117.184;2024-01-16T07:01:57;99487.40;;;22.65;31.14
47592;BME280;33317;33.356;-117.184;2024-01-16T07:04:26;99483.64;;;23.06;30.30
47592;BME280;33317;33.356;-117.184;2024-01-16T07:06:54;99478.74;;;22.43;31.40
47592;BME280;33317;33.356;-117.184;2024-01-16T07:09:22;99479.17;;;22.62;31.44
47592;BME280;33317;33.356;-117.184;2024-01-16T07:11:50;99481.82;;;22.49;31.83
47592;BME280;33317;33.356;-117.184;2024-01-16T07:14:19;99481.93;;;21.44;32.52
47592;BME280;33317;33.356;-117.184;2024-01-16T07:16:47;99474.59;;;21.98;31.76
47592;BME280;33317;33.356;-117.184;2024-01-16T07:19:16;99473.64;;;21.58;32.25
47592;BME280;33317;33.356;-117.184;2024-01-16T07:21:44;99465.24;;;21.71;32.52
47592;BME280;33317;33.356;-117.184;2024-01-16T07:24:13;99456.96;;;21.97;31.70
47592;BME280;33317;33.356;-117.184;2024-01-16T07:26:41;99460.94;;;21.71;32.15
47592;BME280;33317;33.356;-117.184;2024-01-16T07:29:09;99459.40;;;21.83;32.08
47592;BME280;33317;33.356;-117.184;2024-01-16T07:31:38;99455.02;;;22.10;31.97
47592;BME280;33317;33.356;-117.184;2024-01-16T07:34:06;99450.66;;;21.70;32.45
47592;BME280;33317;33.356;-117.184;2024-01-16T07:36:34;99446.69;;;22.00;31.70
47592;BME280;33317;33.356;-117.184;2024-01-16T07:39:03;99445.40;;;22.38;31.89
47592;BME280;33317;33.356;-117.184;2024-01-16T07:41:31;99444.47;;;22.32;31.50
47592;BME280;33317;33.356;-117.184;2024-01-16T07:44:00;99442.70;;;22.50;31.49
47592;BME280;33317;33.356;-117.184;2024-01-16T07:46:28;99440.53;;;21.66;32.39
47592;BME280;33317;33.356;-117.184;2024-01-16T07:48:57;99433.43;;;22.14;31.80
47592;BME280;33317;33.356;-117.184;2024-01-16T07:51:25;99432.43;;;21.83;31.74
47592;BME280;33317;33.356;-117.184;2024-01-16T07:54:05;99430.47;;;21.99;32.15
47592;BME280;33317;33.356;-117.184;2024-01-16T07:56:34;99430.76;;;21.79;31.96
47592;BME280;33317;33.356;-117.184;2024-01-16T07:59:03;99429.36;;;21.52;32.05
47592;BME280;33317;33.356;-117.184;2024-01-16T08:01:32;99427.29;;;22.56;30.73
47592;BME280;33317;33.356;-117.184;2024-01-16T08:04:00;99430.08;;;22.00;31.34
47592;BME280;33317;33.356;-117.184;2024-01-16T08:06:29;99428.69;;;22.24;31.25
47592;BME280;33317;33.356;-117.184;2024-01-16T08:08:58;99427.93;;;22.19;31.29
47592;BME280;33317;33.356;-117.184;2024-01-16T08:11:26;99427.57;;;22.51;30.79
47592;BME280;33317;33.356;-117.184;2024-01-16T08:13:54;99422.98;;;21.66;32.16
47592;BME280;33317;33.356;-117.184;2024-01-16T08:16:23;99428.69;;;22.14;31.74
47592;BME280;33317;33.356;-117.184;2024-01-16T08:18:51;99429.23;;;21.91;31.70
47592;BME280;33317;33.356;-117.184;2024-01-16T08:21:19;99427.65;;;22.03;31.33
47592;BME280;33317;33.356;-117.184;2024-01-16T08:23:48;99427.43;;;22.14;31.08
47592;BME280;33317;33.356;-117.184;2024-01-16T08:26:16;99430.22;;;21.53;32.36
47592;BME280;33317;33.356;-117.184;2024-01-16T08:28:44;99427.80;;;21.95;31.79
47592;BME280;33317;33.356;-117.184;2024-01-16T08:31:17;99428.49;;;20.89;33.17
47592;BME280;33317;33.356;-117.184;2024-01-16T08:33:45;99437.16;;;21.00;32.82
47592;BME280;33317;33.356;-117.184;2024-01-16T08:36:13;99439.03;;;21.17;32.70
47592;BME280;33317;33.356;-117.184;2024-01-16T08:38:42;99437.08;;;21.12;32.72
47592;BME280;33317;33.356;-117.184;2024-01-16T08:41:10;99438.71;;;22.06;31.02
47592;BME280;33317;33.356;-117.184;2024-01-16T08:43:38;99436.66;;;21.78;31.57
47592;BME280;33317;33.356;-117.184;2024-01-16T08:46:07;99440.18;;;22.69;30.34
47592;BME280;33317;33.356;-117.184;2024-01-16T08:48:35;99444.96;;;22.29;30.71
47592;BME280;33317;33.356;-117.184;2024-01-16T08:51:08;99444.97;;;22.54;30.31
47592;BME280;33317;33.356;-117.184;2024-01-16T08:53:38;99443.36;;;22.00;30.86
47592;BME280;33317;33.356;-117.184;2024-01-16T08:56:07;99442.35;;;22.81;29.84
47592;BME280;33317;33.356;-117.184;2024-01-16T08:58:35;99446.11;;;22.55;30.55
47592;BME280;33317;33.356;-117.184;2024-01-16T09:01:04;99449.75;;;22.52;30.09
47592;BME280;33317;33.356;-117.184;2024-01-16T09:03:33;99450.80;;;22.66;29.81
47592;BME280;33317;33.356;-117.184;2024-01-16T09:06:01;99449.75;;;22.16;30.89
47592;BME280;33317;33.356;-117.184;2024-01-16T09:08:31;99448.22;;;22.62;29.87
47592;BME280;33317;33.356;-117.184;2024-01-16T09:10:59;99446.22;;;22.69;30.19
47592;BME280;33317;33.356;-117.184;2024-01-16T09:13:27;99450.59;;;22.82;29.62
47592;BME280;33317;33.356;-117.184;2024-01-16T09:15:56;99453.42;;;22.48;30.16
47592;BME280;33317;33.356;-117.184;2024-01-16T09:18:24;99458.56;;;22.72;29.85
47592;BME280;33317;33.356;-117.184;2024-01-16T09:20:52;99460.90;;;22.31;30.08
47592;BME280;33317;33.356;-117.184;2024-01-16T09:23:21;99460.52;;;22.98;29.54
47592;BME280;33317;33.356;-117.184;2024-01-16T09:25:49;99456.45;;;22.49;30.07
47592;BME280;33317;33.356;-117.184;2024-01-16T09:28:18;99455.90;;;22.07;30.85
47592;BME280;33317;33.356;-117.184;2024-01-16T09:30:46;99457.66;;;21.51;31.60
47592;BME280;33317;33.356;-117.184;2024-01-16T09:33:15;99455.60;;;21.93;31.01
47592;BME280;33317;33.356;-117.184;2024-01-16T09:35:43;99449.79;;;21.12;32.22
47592;BME280;33317;33.356;-117.184;2024-01-16T09:38:12;99448.63;;;21.50;31.69
47592;BME280;33317;33.356;-117.184;2024-01-16T09:40:40;99447.04;;;21.48;31.74
47592;BME280;33317;33.356;-117.184;2024-01-16T09:43:09;99445.86;;;21.45;32.36
47592;BME280;33317;33.356;-117.184;2024-01-16T09:45:38;99446.70;;;20.94;32.37
47592;BME280;33317;33.356;-117.184;2024-01-16T09:48:07;99446.97;;;20.80;32.73
47592;BME280;33317;33.356;-117.184;2024-01-16T09:50:36;99448.97;;;21.11;32.35
47592;BME280;33317;33.356;-117.184;2024-01-16T09:53:04;99455.19;;;21.07;32.41
47592;BME280;33317;33.356;-117.184;2024-01-16T09:55:32;99459.48;;;21.25;32.49
47592;BME280;33317;33.356;-117.184;2024-01-16T09:58:01;99461.26;;;21.53;32.38
47592;BME280;33317;33.356;-117.184;2024-01-16T10:00:30;99463.39;;;20.69;32.65
47592;BME280;33317;33.356;-117.184;2024-01-16T10:02:59;99467.10;;;21.01;32.75
47592;BME280;33317;33.356;-117.184;2024-01-16T10:05:30;99466.87;;;20.86;33.26
47592;BME280;33317;33.356;-117.184;2024-01-16T10:07:59;99464.44;;;20.46;33.54
47592;BME280;33317;33.356;-117.184;2024-01-16T10:10:27;99464.69;;;19.95;33.74
47592;BME280;33317;33.356;-117.184;2024-01-16T10:12:56;99468.27;;;20.19;34.04
47592;BME280;33317;33.356;-117.184;2024-01-16T10:15:24;99462.49;;;20.57;33.06
47592;BME280;33317;33.356;-117.184;2024-01-16T10:17:52;99465.58;;;20.37;32.88
47592;BME280;33317;33.356;-117.184;2024-01-16T10:20:36;99464.26;;;20.33;33.13
47592;BME280;33317;33.356;-117.184;2024-01-16T10:23:04;99466.80;;;20.35;33.46
47592;BME280;33317;33.356;-117.184;2024-01-16T10:25:33;99469.31;;;20.19;33.69
47592;BME280;33317;33.356;-117.184;2024-01-16T10:28:04;99463.82;;;20.53;33.11
47592;BME280;33317;33.356;-117.184;2024-01-16T10:30:33;99460.80;;;20.50;33.13
47592;BME280;33317;33.356;-117.184;2024-01-16T10:33:13;99463.45;;;19.99;33.89
47592;BME280;33317;33.356;-117.184;2024-01-16T10:35:42;99463.39;;;20.00;34.07
47592;BME280;33317;33.356;-117.184;2024-01-16T10:38:20;99459.12;;;20.02;33.75
47592;BME280;33317;33.356;-117.184;2024-01-16T10:40:48;99457.35;;;19.98;34.06
47592;BME280;33317;33.356;-117.184;2024-01-16T10:43:31;99457.94;;;19.90;34.11
47592;BME280;33317;33.356;-117.184;2024-01-16T10:46:08;99451.34;;;20.00;33.61
47592;BME280;33317;33.356;-117.184;2024-01-16T10:48:37;99446.52;;;20.09;33.98
47592;BME280;33317;33.356;-117.184;2024-01-16T10:51:06;99450.89;;;19.68;34.13
47592;BME280;33317;33.356;-117.184;2024-01-16T10:53:35;99445.93;;;19.87;34.14
47592;BME280;33317;33.356;-117.184;2024-01-16T10:56:08;99448.23;;;19.92;34.08
47592;BME280;33317;33.356;-117.184;2024-01-16T10:58:40;99448.09;;;20.00;33.94
47592;BME280;33317;33.356;-117.184;2024-01-16T11:01:13;99447.73;;;20.17;33.68
47592;BME280;33317;33.356;-117.184;2024-01-16T11:03:47;99452.62;;;19.99;33.49
47592;BME280;33317;33.356;-117.184;2024-01-16T11:06:18;99456.34;;;20.11;33.44
47592;BME280;33317;33.356;-117.184;2024-01-16T11:08:48;99459.27;;;19.71;33.79
47592;BME280;33317;33.356;-117.184;2024-01-16T11:11:18;99464.20;;;19.90;33.58
47592;BME280;33317;33.356;-117.184;2024-01-16T11:13:48;99463.25;;;20.10;33.25
47592;BME280;33317;33.356;-117.184;2024-01-16T11:16:17;99467.68;;;19.93;33.81
47592;BME280;33317;33.356;-117.184;2024-01-16T11:18:47;99467.93;;;20.16;33.48
47592;BME280;33317;33.356;-117.184;2024-01-16T11:21:16;99469.23;;;19.87;34.11
47592;BME280;33317;33.356;-117.184;2024-01-16T11:23:44;99469.60;;;19.69;33.99
47592;BME280;33317;33.356;-117.184;2024-01-16T11:26:40;99468.40;;;19.69;34.43
47592;BME280;33317;33.356;-117.184;2024-01-16T11:29:41;99462.36;;;19.72;33.98
47592;BME280;33317;33.356;-117.184;2024-01-16T11:32:34;99461.97;;;19.24;34.72
47592;BME280;33317;33.356;-117.184;2024-01-16T11:35:02;99464.49;;;19.21;34.66
47592;BME280;33317;33.356;-117.184;2024-01-16T11:37:31;99465.51;;;19.17;34.69
47592;BME280;33317;33.356;-117.184;2024-01-16T11:40:21;99466.06;;;19.60;34.40
47592;BME280;33317;33.356;-117.184;2024-01-16T11:42:50;99467.53;;;19.34;34.18
47592;BME280;33317;33.356;-117.184;2024-01-16T11:45:55;99464.48;;;19.27;34.71
47592;BME280;33317;33.356;-117.184;2024-01-16T11:48:24;99462.94;;;19.17;34.94
47592;BME280;33317;33.356;-117.184;2024-01-16T11:50:53;99458.94;;;19.39;34.26
47592;BME280;33317;33.356;-117.184;2024-01-16T11:53:38;99461.51;;;19.18;34.88
47592;BME280;33317;33.356;-117.184;2024-01-16T11:56:56;99465.81;;;19.28;34.53
47592;BME280;33317;33.356;-117.184;2024-01-16T11:59:52;99473.54;;;19.36;34.29
47592;BME280;33317;33.356;-117.184;2024-01-16T12:02:29;99474.67;;;19.54;34.00
47592;BME280;33317;33.356;-117.184;2024-01-16T12:05:02;99472.74;;;19.14;34.43
47592;BME280;33317;33.356;-117.184;2024-01-16T12:07:45;99472.54;;;19.09;34.93
47592;BME280;33317;33.356;-117.184;2024-01-16T12:10:13;99476.12;;;18.98;34.86
47592;BME280;33317;33.356;-117.184;2024-01-16T12:12:42;99472.40;;;18.80;34.97
47592;BME280;33317;33.356;-117.184;2024-01-16T12:15:16;99470.46;;;19.21;34.70
47592;BME280;33317;33.356;-117.184;2024-01-16T12:18:02;99468.07;;;19.32;34.57
47592;BME280;33317;33.356;-117.184;2024-01-16T12:20:31;99468.40;;;18.84;34.88
47592;BME280;33317;33.356;-117.184;2024-01-16T12:23:02;99471.84;;;19.18;34.09
47592;BME280;33317;33.356;-117.184;2024-01-16T12:25:31;99471.12;;;19.45;34.05
47592;BME280;33317;33.356;-117.184;2024-01-16T12:28:01;99466.94;;;19.36;33.92
47592;BME280;33317;33.356;-117.184;2024-01-16T12:30:31;99463.45;;;19.29;33.98
47592;BME280;33317;33.356;-117.184;2024-01-16T12:33:07;99458.09;;;19.20;34.13
47592;BME280;33317;33.356;-117.184;2024-01-16T12:35:38;99458.22;;;19.24;34.10
47592;BME280;33317;33.356;-117.184;2024-01-16T12:38:08;99459.32;;;20.31;33.39
47592;BME280;33317;33.356;-117.184;2024-01-16T12:40:39;99464.37;;;19.62;33.61
47592;BME280;33317;33.356;-117.184;2024-01-16T12:43:08;99468.22;;;19.84;33.21
47592;BME280;33317;33.356;-117.184;2024-01-16T12:45:37;99473.24;;;19.86;33.38